createdAt,value
2018-02-01T00:00:43.626Z,7.22
2018-02-01T00:03:12.827Z,9.07
2018-02-01T00:05:41.206Z,9.95
2018-02-01T00:08:09.931Z,6.12
2018-02-01T00:10:38.320Z,9.88
2018-02-01T00:13:06.728Z,9.75
2018-02-01T00:15:35.115Z,7.85
2018-02-01T00:18:03.506Z,12.93
2018-02-01T00:20:32.313Z,14.87
2018-02-01T00:23:00.795Z,9.10
2018-02-01T00:25:29.200Z,8.82
2018-02-01T00:27:57.596Z,16.48
2018-02-01T00:30:26.017Z,11.38
2018-02-01T00:32:54.729Z,7.97
2018-02-01T00:35:23.133Z,6.20
2018-02-01T00:37:51.554Z,10.63
2018-02-01T00:40:20.083Z,12.85
2018-02-01T00:42:48.463Z,8.32
2018-02-01T00:45:17.080Z,8.95
2018-02-01T00:47:45.466Z,18.52
2018-02-01T00:50:13.868Z,18.35
2018-02-01T00:52:42.237Z,9.32
2018-02-01T00:55:10.643Z,13.93
2018-02-01T00:57:39.363Z,16.00
2018-02-01T01:00:07.765Z,12.20
2018-02-01T01:02:36.150Z,9.15
2018-02-01T01:05:04.614Z,7.55
2018-02-01T01:07:32.981Z,15.13
2018-02-01T01:10:01.366Z,17.92
2018-02-01T01:15:04.857Z,14.43
2018-02-01T01:17:33.419Z,13.98
2018-02-01T01:20:01.816Z,15.13
2018-02-01T01:22:30.200Z,12.50
2018-02-01T01:24:58.668Z,13.57
2018-02-01T01:27:27.189Z,10.55
2018-02-01T01:29:55.569Z,14.65
2018-02-01T01:32:23.962Z,10.60
2018-02-01T01:34:52.346Z,12.75
2018-02-01T01:37:20.762Z,11.75
2018-02-01T01:39:49.145Z,20.15
2018-02-01T01:42:17.519Z,11.38
2018-02-01T01:44:46.106Z,13.77
2018-02-01T01:47:14.484Z,8.07
2018-02-01T01:49:42.867Z,10.95
2018-02-01T01:52:11.257Z,10.27
2018-02-01T01:54:39.632Z,11.95
2018-02-01T01:57:08.057Z,14.50
2018-02-01T01:59:36.441Z,7.60
2018-02-01T02:02:04.884Z,17.92
2018-02-01T02:04:33.255Z,10.27
2018-02-01T02:07:01.652Z,11.70
2018-02-01T02:09:30.330Z,9.88
2018-02-01T02:11:58.698Z,12.80
2018-02-01T02:14:27.163Z,12.00
2018-02-01T02:16:55.539Z,14.13
2018-02-01T02:19:23.916Z,15.63
2018-02-01T02:21:52.449Z,19.27
2018-02-01T02:24:20.827Z,21.50
2018-02-01T02:26:49.207Z,12.55
2018-02-01T02:29:17.571Z,8.70
2018-02-01T02:31:46.034Z,7.03
2018-02-01T02:34:14.922Z,13.65
2018-02-01T02:36:43.364Z,9.88
2018-02-01T02:39:11.746Z,12.37
2018-02-01T02:41:40.134Z,7.87
2018-02-01T02:44:08.499Z,8.23
2018-02-01T02:46:36.879Z,11.32
2018-02-01T02:49:05.270Z,15.30
2018-02-01T02:51:33.959Z,8.00
2018-02-01T02:54:02.377Z,11.52
2018-02-01T02:56:30.756Z,16.25
2018-02-01T02:58:59.219Z,9.88
2018-02-01T03:01:27.603Z,14.77
2018-02-01T03:03:56.297Z,17.60
2018-02-01T03:06:24.654Z,13.52
2018-02-01T03:08:53.013Z,18.27
2018-02-01T03:11:21.394Z,17.85
2018-02-01T03:13:49.744Z,29.15
2018-02-01T03:16:18.115Z,12.23
2018-02-01T03:18:46.533Z,13.57
2018-02-01T03:21:15.205Z,13.60
2018-02-01T03:23:43.591Z,16.10
2018-02-01T03:26:11.956Z,12.02
2018-02-01T03:28:40.335Z,18.92
2018-02-01T03:31:08.720Z,15.77
2018-02-01T03:33:37.492Z,11.45
2018-02-01T03:36:05.876Z,11.77
2018-02-01T03:38:34.329Z,21.02
2018-02-01T03:41:02.710Z,22.37
2018-02-01T03:43:31.097Z,17.65
2018-02-01T03:45:59.776Z,17.55
2018-02-01T03:48:28.167Z,15.25
2018-02-01T03:50:56.547Z,17.52
2018-02-01T03:53:24.987Z,17.00
2018-02-01T03:55:53.354Z,20.92
2018-02-01T03:58:22.036Z,15.73
2018-02-01T04:00:50.731Z,14.45
2018-02-01T04:03:19.119Z,18.17
2018-02-01T04:05:47.493Z,14.82
2018-02-01T04:08:15.947Z,17.70
2018-02-01T04:10:44.320Z,28.35
2018-02-01T04:13:12.759Z,16.27
2018-02-01T04:15:41.137Z,18.15
2018-02-01T04:18:09.507Z,22.80
2018-02-01T04:20:37.866Z,15.52
2018-02-01T04:23:06.254Z,18.20
2018-02-01T04:25:35.004Z,17.75
2018-02-01T04:28:03.385Z,23.30
2018-02-01T04:30:31.752Z,15.10
2018-02-01T04:33:00.202Z,14.55
2018-02-01T04:35:28.586Z,15.65
2018-02-01T04:37:57.294Z,15.23
2018-02-01T04:40:25.675Z,12.88
2018-02-01T04:42:54.144Z,13.40
2018-02-01T04:45:22.557Z,23.85
2018-02-01T04:47:50.936Z,12.10
2018-02-01T04:50:19.609Z,15.18
2018-02-01T04:52:48.007Z,14.32
2018-02-01T04:55:16.386Z,15.68
2018-02-01T04:57:44.778Z,15.48
2018-02-01T05:00:13.162Z,14.35
2018-02-01T05:02:41.526Z,12.43
2018-02-01T05:05:10.546Z,18.80
2018-02-01T05:07:39.239Z,15.02
2018-02-01T05:10:07.626Z,11.18
2018-02-01T05:12:36.009Z,20.42
2018-02-01T05:15:04.386Z,13.00
2018-02-01T05:17:32.837Z,16.80
2018-02-01T05:20:01.525Z,15.80
2018-02-01T05:22:29.939Z,18.95
2018-02-01T05:24:58.312Z,18.25
2018-02-01T05:27:26.709Z,16.73
2018-02-01T05:29:55.071Z,15.35
2018-02-01T05:32:23.851Z,16.02
2018-02-01T05:34:52.208Z,21.52
2018-02-01T05:37:20.561Z,15.98
2018-02-01T05:39:48.940Z,19.65
2018-02-01T05:42:17.307Z,12.88
2018-02-01T05:44:45.982Z,21.65
2018-02-01T05:47:14.372Z,15.57
2018-02-01T05:49:42.731Z,20.70
2018-02-01T05:52:11.116Z,13.60
2018-02-01T05:54:39.485Z,13.70
2018-02-01T05:57:08.397Z,22.85
2018-02-01T05:59:36.773Z,14.32
2018-02-01T06:02:05.264Z,14.32
2018-02-01T06:04:33.637Z,9.70
2018-02-01T06:07:02.022Z,15.50
2018-02-01T06:09:30.715Z,11.12
2018-02-01T06:11:59.118Z,9.88
2018-02-01T06:14:27.577Z,12.80
2018-02-01T06:16:55.953Z,7.65
2018-02-01T06:19:24.333Z,8.32
2018-02-01T06:21:53.007Z,13.18
2018-02-01T06:24:21.372Z,10.77
2018-02-01T06:26:50.661Z,9.05
2018-02-01T06:29:19.124Z,14.55
2018-02-01T06:31:47.501Z,10.00
2018-02-01T06:34:16.087Z,17.73
2018-02-01T06:36:44.468Z,9.73
2018-02-01T06:39:12.855Z,13.30
2018-02-01T06:41:41.336Z,16.08
2018-02-01T06:44:09.723Z,8.77
2018-02-01T06:46:38.420Z,10.65
2018-02-01T06:49:06.806Z,9.32
2018-02-01T06:51:35.190Z,14.57
2018-02-01T06:54:08.650Z,9.00
2018-02-01T06:56:37.011Z,12.00
2018-02-01T06:59:05.483Z,10.52
2018-02-01T07:01:33.963Z,9.40
2018-02-01T07:04:02.358Z,11.48
2018-02-01T07:06:30.733Z,9.98
2018-02-01T07:08:59.103Z,5.93
2018-02-01T07:11:27.876Z,18.65
2018-02-01T07:13:56.273Z,8.07
2018-02-01T07:16:24.653Z,17.60
2018-02-01T07:18:53.063Z,10.60
2018-02-01T07:21:21.432Z,9.68
2018-02-01T07:23:50.179Z,8.80
2018-02-01T07:26:18.571Z,10.98
2018-02-01T07:28:46.981Z,12.27
2018-02-01T07:31:15.377Z,9.95
2018-02-01T07:33:43.748Z,8.93
2018-02-01T07:36:12.158Z,8.20
2018-02-01T07:38:40.540Z,8.82
2018-02-01T07:41:08.940Z,10.40
2018-02-01T07:43:37.317Z,10.05
2018-02-01T07:46:24.420Z,16.62
2018-02-01T07:48:56.167Z,11.07
2018-02-01T07:51:24.661Z,9.80
2018-02-01T07:53:53.046Z,7.20
2018-02-01T07:56:21.403Z,8.18
2018-02-01T07:58:49.770Z,11.18
2018-02-01T08:01:18.399Z,9.07
2018-02-01T08:03:48.161Z,17.80
2018-02-01T08:06:16.625Z,10.13
2018-02-01T08:08:45.027Z,12.00
2018-02-01T08:11:14.358Z,5.15
2018-02-01T08:13:42.787Z,8.00
2018-02-01T08:16:11.163Z,9.85
2018-02-01T08:18:39.571Z,9.38
2018-02-01T08:21:07.937Z,7.57
2018-02-01T08:23:36.320Z,13.20
2018-02-01T08:26:04.794Z,11.40
2018-02-01T08:28:33.190Z,21.75
2018-02-01T08:31:01.570Z,13.77
2018-02-01T08:33:29.956Z,7.45
2018-02-01T08:35:58.343Z,5.68
2018-02-01T08:38:26.968Z,14.10
2018-02-01T08:40:55.374Z,7.25
2018-02-01T08:43:23.770Z,8.85
2018-02-01T08:45:52.133Z,7.62
2018-02-01T08:48:20.509Z,5.68
2018-02-01T08:50:49.114Z,6.22
2018-02-01T08:53:17.493Z,5.95
2018-02-01T08:55:45.877Z,12.30
2018-02-01T08:58:14.285Z,5.30
2018-02-01T09:00:42.684Z,5.43
2018-02-01T09:03:11.370Z,3.80
2018-02-01T09:05:39.751Z,9.73
2018-02-01T09:08:08.150Z,9.32
2018-02-01T09:10:36.536Z,13.18
2018-02-01T09:13:04.928Z,13.65
2018-02-01T09:15:33.385Z,6.18
2018-02-01T09:18:01.827Z,6.15
2018-02-01T09:20:30.313Z,12.65
2018-02-01T09:22:58.743Z,10.88
2018-02-01T09:25:27.135Z,6.90
2018-02-01T09:27:55.909Z,7.62
2018-02-01T09:30:24.716Z,7.90
2018-02-01T09:32:53.183Z,8.15
2018-02-01T09:35:21.628Z,9.10
2018-02-01T09:37:50.015Z,11.63
2018-02-01T09:40:18.499Z,7.90
2018-02-01T09:42:46.877Z,6.70
2018-02-01T09:45:15.308Z,9.90
2018-02-01T09:47:43.720Z,10.32
2018-02-01T09:50:12.394Z,9.13
2018-02-01T09:52:40.817Z,9.27
2018-02-01T09:55:09.211Z,10.73
2018-02-01T09:57:37.794Z,5.40
2018-02-01T10:00:06.193Z,8.50
2018-02-01T10:02:34.578Z,16.47
2018-02-01T10:05:03.046Z,5.33
2018-02-01T10:07:31.423Z,4.93
2018-02-01T10:10:00.193Z,5.30
2018-02-01T10:12:28.658Z,6.20
2018-02-01T10:14:57.067Z,6.97
2018-02-01T10:17:25.454Z,2.80
2018-02-01T10:19:53.829Z,2.43
2018-02-01T10:22:22.508Z,7.93
2018-02-01T10:24:50.924Z,3.90
2018-02-01T10:27:19.291Z,9.13
2018-02-01T10:29:47.664Z,6.57
2018-02-01T10:32:16.106Z,8.67
2018-02-01T10:34:44.777Z,7.93
2018-02-01T10:37:13.157Z,10.03
2018-02-01T10:39:41.587Z,7.33
2018-02-01T10:42:10.010Z,10.47
2018-02-01T10:44:38.395Z,8.47
2018-02-01T10:47:07.105Z,7.80
2018-02-01T10:49:35.498Z,6.63
2018-02-01T10:52:03.886Z,13.93
2018-02-01T10:54:32.322Z,2.97
2018-02-01T10:57:00.698Z,6.23
2018-02-01T10:59:29.315Z,5.10
2018-02-01T11:01:57.716Z,9.70
2018-02-01T11:04:26.119Z,12.30
2018-02-01T11:06:54.535Z,13.98
2018-02-01T11:09:22.910Z,18.27
2018-02-01T11:11:51.342Z,7.80
2018-02-01T11:14:19.733Z,12.50
2018-02-01T11:16:48.144Z,14.50
2018-02-01T11:19:16.619Z,4.57
2018-02-01T11:21:45.015Z,9.97
2018-02-01T11:24:13.715Z,14.85
2018-02-01T11:26:42.095Z,10.85
2018-02-01T11:29:10.504Z,9.02
2018-02-01T11:31:38.890Z,9.27
2018-02-01T11:34:07.283Z,9.65
2018-02-01T11:36:35.819Z,9.38
2018-02-01T11:39:04.217Z,11.60
2018-02-01T11:41:32.644Z,8.23
2018-02-01T11:44:01.035Z,6.70
2018-02-01T11:46:29.442Z,5.72
2018-02-01T11:48:58.018Z,15.00
2018-02-01T11:51:26.407Z,5.28
2018-02-01T11:53:54.783Z,7.95
2018-02-01T11:56:23.177Z,13.77
2018-02-01T11:58:51.598Z,6.15
2018-02-01T12:01:20.102Z,4.50
2018-02-01T12:03:48.514Z,7.43
2018-02-01T12:06:16.915Z,6.95
2018-02-01T12:08:45.505Z,10.00
2018-02-01T12:11:13.956Z,6.45
2018-02-01T12:13:42.662Z,8.98
2018-02-01T12:16:11.051Z,15.73
2018-02-01T12:18:39.436Z,9.68
2018-02-01T12:21:07.830Z,5.95
2018-02-01T12:23:36.219Z,12.85
2018-02-01T12:26:04.839Z,4.95
2018-02-01T12:28:33.239Z,6.57
2018-02-01T12:31:01.629Z,11.20
2018-02-01T12:33:30.019Z,7.10
2018-02-01T12:35:58.425Z,7.82
2018-02-01T12:38:27.190Z,6.43
2018-02-01T12:40:55.565Z,7.75
2018-02-01T12:43:23.971Z,6.32
2018-02-01T12:45:52.354Z,4.22
2018-02-01T12:48:20.806Z,7.30
2018-02-01T12:50:49.320Z,9.68
2018-02-01T12:53:17.710Z,7.53
2018-02-01T12:55:46.093Z,3.45
2018-02-01T12:58:14.486Z,6.87
2018-02-01T13:00:42.884Z,5.60
2018-02-01T13:03:11.575Z,6.05
2018-02-01T13:05:39.957Z,5.70
2018-02-01T13:08:08.435Z,12.10
2018-02-01T13:10:36.834Z,4.97
2018-02-01T13:13:05.235Z,5.43
2018-02-01T13:15:33.634Z,5.22
2018-02-01T13:18:02.027Z,6.95
2018-02-01T13:20:30.761Z,8.48
2018-02-01T13:22:59.181Z,14.63
2018-02-01T13:25:27.585Z,9.20
2018-02-01T13:27:55.966Z,7.70
2018-02-01T13:30:24.361Z,4.87
2018-02-01T13:32:53.155Z,6.97
2018-02-01T13:35:21.526Z,4.93
2018-02-01T13:37:49.903Z,5.80
2018-02-01T13:40:18.290Z,7.25
2018-02-01T13:42:46.671Z,3.10
2018-02-01T13:45:15.092Z,14.75
2018-02-01T13:47:43.552Z,4.47
2018-02-01T13:50:12.294Z,5.95
2018-02-01T13:52:40.708Z,9.63
2018-02-01T13:55:09.103Z,4.65
2018-02-01T13:57:37.486Z,9.02
2018-02-01T14:00:05.879Z,11.57
2018-02-01T14:02:34.277Z,2.33
2018-02-01T14:05:02.667Z,4.90
2018-02-01T14:07:31.188Z,3.35
2018-02-01T14:09:59.583Z,3.37
2018-02-01T14:12:27.963Z,7.78
2018-02-01T14:14:56.367Z,4.00
2018-02-01T14:17:24.756Z,11.02
2018-02-01T14:19:53.546Z,7.85
2018-02-01T14:22:21.935Z,10.38
2018-02-01T14:24:50.315Z,4.85
2018-02-01T14:27:18.690Z,7.90
2018-02-01T14:29:47.113Z,11.90
2018-02-01T14:32:15.661Z,5.35
2018-02-01T14:34:44.053Z,5.25
2018-02-01T14:37:12.458Z,10.60
2018-02-01T14:39:40.836Z,7.43
2018-02-01T14:42:09.225Z,6.43
2018-02-01T14:44:37.851Z,10.40
2018-02-01T14:47:06.246Z,10.77
2018-02-01T14:49:34.673Z,14.60
2018-02-01T14:52:03.048Z,7.80
2018-02-01T14:54:31.458Z,8.30
2018-02-01T14:57:00.232Z,3.83
2018-02-01T14:59:28.713Z,5.43
2018-02-01T15:01:57.097Z,6.72
2018-02-01T15:04:25.531Z,7.50
2018-02-01T15:06:53.919Z,8.77
2018-02-01T15:09:22.706Z,6.32
2018-02-01T15:11:51.454Z,9.95
2018-02-01T15:14:20.027Z,10.57
2018-02-01T15:16:48.431Z,9.80
2018-02-01T15:19:16.835Z,9.40
2018-02-01T15:21:45.266Z,5.87
2018-02-01T15:24:13.688Z,5.35
2018-02-01T15:26:42.077Z,7.75
2018-02-01T15:29:10.453Z,3.62
2018-02-01T15:31:39.009Z,6.15
2018-02-01T15:34:07.742Z,5.37
2018-02-01T15:36:36.197Z,10.02
2018-02-01T15:39:04.587Z,9.05
2018-02-01T15:41:32.958Z,3.83
2018-02-01T15:44:01.370Z,6.22
2018-02-01T15:46:29.906Z,6.37
2018-02-01T15:48:58.379Z,7.20
2018-02-01T15:51:26.773Z,5.05
2018-02-01T15:53:55.203Z,6.97
2018-02-01T15:56:23.588Z,10.88
2018-02-01T15:58:52.308Z,8.85
2018-02-01T16:01:20.686Z,6.47
2018-02-01T16:03:49.073Z,4.45
2018-02-01T16:06:17.456Z,6.75
2018-02-01T16:08:46.168Z,3.53
2018-02-01T16:11:14.846Z,2.87
2018-02-01T16:13:43.245Z,2.80
2018-02-01T16:16:13.090Z,5.35
2018-02-01T16:18:41.496Z,3.58
2018-02-01T16:21:09.944Z,8.13
2018-02-01T16:23:39.839Z,5.18
2018-02-01T16:26:09.665Z,13.07
2018-02-01T16:28:39.731Z,4.75
2018-02-01T16:31:09.114Z,8.70
2018-02-01T16:33:37.654Z,3.78
2018-02-01T16:36:07.451Z,3.47
2018-02-01T16:38:35.985Z,3.58
2018-02-01T16:41:04.773Z,4.37
2018-02-01T16:43:33.516Z,5.50
2018-02-01T16:46:03.313Z,3.55
2018-02-01T16:48:32.460Z,6.47
2018-02-01T16:51:00.843Z,5.95
2018-02-01T16:53:29.618Z,2.83
2018-02-01T16:55:58.163Z,8.32
2018-02-01T16:58:26.554Z,6.93
2018-02-01T17:00:55.089Z,3.90
2018-02-01T17:03:23.773Z,4.22
2018-02-01T17:05:52.231Z,5.85
2018-02-01T17:08:21.612Z,2.17
2018-02-01T17:10:50.075Z,2.25
2018-02-01T17:13:18.790Z,2.45
2018-02-01T17:15:47.168Z,3.92
2018-02-01T17:18:15.543Z,5.50
2018-02-01T17:20:43.921Z,2.53
2018-02-01T17:23:12.613Z,2.17
2018-02-01T17:25:41.007Z,2.35
2018-02-01T17:28:09.390Z,2.55
2018-02-01T17:30:37.832Z,3.22
2018-02-01T17:33:06.223Z,1.98
2018-02-01T17:35:34.639Z,1.90
2018-02-01T17:38:03.026Z,3.15
2018-02-01T17:40:31.419Z,2.50
2018-02-01T17:42:59.804Z,4.18
2018-02-01T17:45:28.309Z,2.47
2018-02-01T17:47:56.687Z,2.80
2018-02-01T17:50:25.071Z,3.05
2018-02-01T17:52:53.683Z,3.33
2018-02-01T17:55:22.086Z,4.03
2018-02-01T17:57:50.474Z,3.03
2018-02-01T18:00:18.910Z,6.18
2018-02-01T18:02:47.292Z,4.15
2018-02-01T18:05:15.732Z,3.87
2018-02-01T18:07:44.118Z,20.35
2018-02-01T18:10:12.496Z,3.70
2018-02-01T18:12:40.875Z,3.80
2018-02-01T18:15:09.264Z,4.10
2018-02-01T18:17:38.022Z,3.72
2018-02-01T18:20:06.410Z,5.03
2018-02-01T18:22:34.784Z,3.62
2018-02-01T18:25:03.149Z,8.82
2018-02-01T18:27:31.546Z,6.18
2018-02-01T18:29:59.938Z,7.68
2018-02-01T18:32:28.331Z,12.45
2018-02-01T18:34:56.925Z,7.37
2018-02-01T18:37:25.382Z,39.78
2018-02-01T18:39:53.761Z,10.52
2018-02-01T18:42:22.187Z,10.75
2018-02-01T18:44:50.578Z,10.45
2018-02-01T18:47:19.290Z,15.52
2018-02-01T18:49:47.756Z,8.93
2018-02-01T18:52:16.143Z,16.25
2018-02-01T18:54:44.542Z,13.65
2018-02-01T18:57:13.022Z,8.32
2018-02-01T18:59:41.609Z,9.70
2018-02-01T19:02:09.991Z,9.35
2018-02-01T19:04:38.361Z,14.57
2018-02-01T19:07:06.754Z,13.45
2018-02-01T19:09:35.147Z,12.43
2018-02-01T19:12:03.569Z,14.00
2018-02-01T19:14:31.947Z,14.35
2018-02-01T19:17:00.423Z,18.10
2018-02-01T19:19:28.789Z,16.80
2018-02-01T19:21:57.263Z,20.80
2018-02-01T19:24:25.639Z,18.12
2018-02-01T19:26:54.021Z,19.85
2018-02-01T19:29:22.440Z,18.17
2018-02-01T19:31:50.835Z,22.55
2018-02-01T19:34:19.275Z,27.65
2018-02-01T19:36:47.673Z,21.00
2018-02-01T19:39:16.095Z,21.55
2018-02-01T19:41:44.470Z,25.80
2018-02-01T19:44:12.875Z,21.08
2018-02-01T19:46:41.319Z,23.58
2018-02-01T19:49:09.703Z,20.40
2018-02-01T19:51:38.100Z,26.83
2018-02-01T19:54:06.471Z,21.05
2018-02-01T19:56:34.867Z,21.15
2018-02-01T19:59:03.317Z,25.92
2018-02-01T20:01:31.711Z,20.40
2018-02-01T20:04:00.158Z,19.65
2018-02-01T20:06:28.570Z,23.73
2018-02-01T20:08:56.950Z,24.17
2018-02-01T20:11:25.452Z,23.12
2018-02-01T20:13:53.853Z,26.35
2018-02-01T20:16:22.300Z,23.15
2018-02-01T20:18:50.687Z,21.67
2018-02-01T20:21:19.094Z,23.67
2018-02-01T20:23:47.483Z,26.12
2018-02-01T20:26:15.871Z,21.95
2018-02-01T20:28:44.660Z,25.52
2018-02-01T20:31:13.042Z,22.15
2018-02-01T20:33:41.420Z,32.25
2018-02-01T20:36:09.913Z,31.23
2018-02-01T20:38:38.314Z,24.52
2018-02-01T20:41:06.755Z,25.80
2018-02-01T20:43:35.143Z,22.48
2018-02-01T20:46:03.530Z,26.58
2018-02-01T20:48:31.916Z,29.37
2018-02-01T20:51:00.293Z,28.85
2018-02-01T20:53:28.742Z,25.85
2018-02-01T20:55:57.522Z,29.87
2018-02-01T20:58:26.017Z,23.05
2018-02-01T21:00:54.438Z,25.25
2018-02-01T21:03:22.886Z,24.83
2018-02-01T21:05:51.440Z,22.25
2018-02-01T21:08:19.830Z,22.58
2018-02-01T21:10:48.326Z,26.37
2018-02-01T21:13:16.725Z,28.00
2018-02-01T21:15:45.549Z,24.02
2018-02-01T21:18:14.276Z,22.02
2018-02-01T21:20:42.670Z,20.95
2018-02-01T21:23:11.056Z,20.75
2018-02-01T21:25:39.505Z,25.20
2018-02-01T21:28:07.903Z,21.35
2018-02-01T21:30:36.362Z,19.30
2018-02-01T21:33:04.823Z,24.00
2018-02-01T21:35:33.231Z,19.37
2018-02-01T21:38:01.883Z,21.87
2018-02-01T21:40:30.267Z,22.80
2018-02-01T21:42:59.041Z,25.77
2018-02-01T21:45:27.434Z,29.92
2018-02-01T21:47:56.123Z,22.15
2018-02-01T21:50:24.522Z,23.02
2018-02-01T21:52:52.932Z,17.00
2018-02-01T21:55:21.356Z,25.60
2018-02-01T21:57:49.761Z,20.85
2018-02-01T22:00:18.180Z,25.67
2018-02-01T22:02:46.569Z,28.92
2018-02-01T22:05:16.512Z,26.12
2018-02-01T22:07:44.987Z,21.92
2018-02-01T22:10:13.383Z,22.67
2018-02-01T22:12:41.853Z,24.25
2018-02-01T22:15:10.318Z,24.33
2018-02-01T22:17:38.708Z,29.55
2018-02-01T22:20:07.462Z,23.08
2018-02-01T22:22:35.869Z,21.87
2018-02-01T22:25:04.250Z,21.40
2018-02-01T22:27:32.786Z,18.12
2018-02-01T22:30:01.177Z,23.87
2018-02-01T22:32:29.882Z,29.52
2018-02-01T22:34:58.322Z,23.87
2018-02-01T22:37:26.672Z,21.45
2018-02-01T22:39:55.108Z,30.67
2018-02-01T22:42:23.491Z,22.08
2018-02-01T22:44:52.201Z,24.00
2018-02-01T22:47:20.678Z,26.75
2018-02-01T22:49:49.082Z,26.70
2018-02-01T22:52:17.568Z,28.27
2018-02-01T22:54:45.931Z,26.62
2018-02-01T22:57:14.606Z,26.42
2018-02-01T22:59:43.008Z,24.80
2018-02-01T23:02:11.411Z,30.27
2018-02-01T23:04:39.801Z,27.33
2018-02-01T23:07:08.288Z,29.87
2018-02-01T23:09:36.715Z,31.40
2018-02-01T23:12:05.099Z,23.45
2018-02-01T23:14:33.494Z,29.95
2018-02-01T23:17:01.884Z,26.70
2018-02-01T23:19:30.282Z,24.08
2018-02-01T23:21:58.949Z,26.27
2018-02-01T23:24:27.333Z,23.40
2018-02-01T23:26:55.739Z,21.90
2018-02-01T23:29:24.110Z,29.73
2018-02-01T23:31:52.481Z,20.60
2018-02-01T23:34:21.155Z,23.90
2018-02-01T23:36:49.557Z,21.77
2018-02-01T23:39:17.942Z,22.45
2018-02-01T23:41:46.331Z,18.77
2018-02-01T23:44:18.404Z,27.05
2018-02-01T23:46:47.069Z,18.52
2018-02-01T23:49:15.484Z,21.65
2018-02-01T23:51:43.838Z,21.98
2018-02-01T23:54:12.235Z,25.15
2018-02-01T23:56:40.601Z,20.40
2018-02-01T23:59:09.306Z,25.85
